sensor_id;sensor_type;location;lat;lon;timestamp;pressure;altitude;pressure_sealevel;temperature;humidity
55347;BME280;41218;55.700;38.270;2023-02-14T00:03:07;98568.84;;;0.40;76.47
55347;BME280;41218;55.700;38.270;2023-02-14T00:08:07;98559.09;;;0.39;76.04
55347;BME280;41218;55.700;38.270;2023-02-14T00:13:08;98566.66;;;0.33;76.01
55347;BME280;41218;55.700;38.270;2023-02-14T00:18:08;98577.66;;;0.37;75.99
55347;BME280;41218;55.700;38.270;2023-02-14T00:23:09;98579.00;;;0.31;76.13
55347;BME280;41218;55.700;38.270;2023-02-14T00:28:09;98587.16;;;0.31;75.68
55347;BME280;41218;55.700;38.270;2023-02-14T00:33:10;98587.00;;;0.27;75.96
55347;BME280;41218;55.700;38.270;2023-02-14T00:38:10;98594.22;;;0.23;75.76
55347;BME280;41218;55.700;38.270;2023-02-14T00:43:11;98592.63;;;0.22;76.05
55347;BME280;41218;55.700;38.270;2023-02-14T00:48:11;98607.53;;;0.16;76.08
55347;BME280;41218;55.700;38.270;2023-02-14T00:53:12;98605.72;;;0.20;75.77
55347;BME280;41218;55.700;38.270;2023-02-14T00:58:13;98599.56;;;0.11;75.94
55347;BME280;41218;55.700;38.270;2023-02-14T01:03:13;98590.81;;;0.05;76.16
55347;BME280;41218;55.700;38.270;2023-02-14T01:08:14;98603.75;;;0.08;75.91
55347;BME280;41218;55.700;38.270;2023-02-14T01:13:15;98606.94;;;0.10;76.13
55347;BME280;41218;55.700;38.270;2023-02-14T01:18:17;98616.34;;;0.13;76.07
55347;BME280;41218;55.700;38.270;2023-02-14T01:23:18;98615.56;;;0.12;76.08
55347;BME280;41218;55.700;38.270;2023-02-14T01:28:18;98613.94;;;0.11;76.06
55347;BME280;41218;55.700;38.270;2023-02-14T01:33:19;98621.78;;;0.13;76.13
55347;BME280;41218;55.700;38.270;2023-02-14T01:38:19;98640.28;;;0.19;76.13
55347;BME280;41218;55.700;38.270;2023-02-14T01:43:20;98637.25;;;0.21;75.89
55347;BME280;41218;55.700;38.270;2023-02-14T01:48:21;98635.84;;;0.15;76.03
55347;BME280;41218;55.700;38.270;2023-02-14T01:53:23;98640.41;;;0.23;75.98
55347;BME280;41218;55.700;38.270;2023-02-14T01:58:28;98647.63;;;0.19;76.37
55347;BME280;41218;55.700;38.270;2023-02-14T02:08:59;98637.75;;;0.14;75.89
55347;BME280;41218;55.700;38.270;2023-02-14T02:14:03;98647.31;;;0.21;75.95
55347;BME280;41218;55.700;38.270;2023-02-14T02:19:52;98655.28;;;0.26;75.83
55347;BME280;41218;55.700;38.270;2023-02-14T02:24:33;98666.47;;;0.24;76.15
55347;BME280;41218;55.700;38.270;2023-02-14T02:29:55;98654.34;;;0.22;75.91
55347;BME280;41218;55.700;38.270;2023-02-14T02:41:45;98652.47;;;0.13;75.86
55347;BME280;41218;55.700;38.270;2023-02-14T02:51:52;98662.13;;;0.02;76.12
55347;BME280;41218;55.700;38.270;2023-02-14T02:57:17;98656.53;;;-0.02;76.55
55347;BME280;41218;55.700;38.270;2023-02-14T03:02:24;98658.44;;;-0.02;76.42
55347;BME280;41218;55.700;38.270;2023-02-14T03:40:16;98683.34;;;0.09;76.33
55347;BME280;41218;55.700;38.270;2023-02-14T03:45:25;98682.19;;;0.10;76.56
55347;BME280;41218;55.700;38.270;2023-02-14T03:50:28;98684.91;;;0.10;76.43
55347;BME280;41218;55.700;38.270;2023-02-14T03:55:35;98682.06;;;0.06;76.25
55347;BME280;41218;55.700;38.270;2023-02-14T04:00:39;98693.41;;;0.08;76.36
55347;BME280;41218;55.700;38.270;2023-02-14T04:05:41;98691.63;;;0.12;76.21
55347;BME280;41218;55.700;38.270;2023-02-14T04:10:45;98691.63;;;0.12;75.99
55347;BME280;41218;55.700;38.270;2023-02-14T04:15:46;98696.13;;;0.08;76.33
55347;BME280;41218;55.700;38.270;2023-02-14T04:20:47;98703.81;;;0.06;76.26
55347;BME280;41218;55.700;38.270;2023-02-14T04:25:47;98714.53;;;0.03;76.19
55347;BME280;41218;55.700;38.270;2023-02-14T04:30:48;98711.34;;;0.01;76.16
55347;BME280;41218;55.700;38.270;2023-02-14T04:35:48;98709.56;;;-0.04;76.13
55347;BME280;41218;55.700;38.270;2023-02-14T04:40:49;98721.41;;;0.00;76.07
55347;BME280;41218;55.700;38.270;2023-02-14T04:45:50;98719.66;;;-0.05;75.83
55347;BME280;41218;55.700;38.270;2023-02-14T04:50:52;98719.66;;;-0.05;76.14
55347;BME280;41218;55.700;38.270;2023-02-14T04:55:52;98723.16;;;-0.04;76.16
55347;BME280;41218;55.700;38.270;2023-02-14T05:00:53;98723.50;;;-0.06;76.07
55347;BME280;41218;55.700;38.270;2023-02-14T05:05:53;98720.78;;;-0.14;75.91
55347;BME280;41218;55.700;38.270;2023-02-14T05:10:54;98737.22;;;-0.02;76.08
55347;BME280;41218;55.700;38.270;2023-02-14T05:15:54;98745.03;;;-0.01;76.15
55347;BME280;41218;55.700;38.270;2023-02-14T05:20:55;98754.81;;;0.01;75.80
55347;BME280;41218;55.700;38.270;2023-02-14T05:25:55;98751.13;;;-0.04;75.87
55347;BME280;41218;55.700;38.270;2023-02-14T05:30:56;98766.94;;;0.03;76.12
55347;BME280;41218;55.700;38.270;2023-02-14T05:35:58;98781.94;;;0.09;76.03
55347;BME280;41218;55.700;38.270;2023-02-14T05:41:00;98788.16;;;0.10;76.27
55347;BME280;41218;55.700;38.270;2023-02-14T05:46:01;98784.81;;;0.13;76.05
55347;BME280;41218;55.700;38.270;2023-02-14T05:51:06;98781.91;;;0.18;75.75
55347;BME280;41218;55.700;38.270;2023-02-14T05:56:06;98774.91;;;0.17;76.26
55347;BME280;41218;55.700;38.270;2023-02-14T06:01:07;98793.25;;;0.29;75.87
55347;BME280;41218;55.700;38.270;2023-02-14T06:06:07;98802.66;;;0.31;76.05
55347;BME280;41218;55.700;38.270;2023-02-14T06:11:08;98796.41;;;0.39;75.73
55347;BME280;41218;55.700;38.270;2023-02-14T06:16:08;98798.59;;;0.55;75.77
55347;BME280;41218;55.700;38.270;2023-02-14T06:21:09;98802.72;;;0.61;75.71
55347;BME280;41218;55.700;38.270;2023-02-14T06:26:09;98807.50;;;0.64;75.62
55347;BME280;41218;55.700;38.270;2023-02-14T06:31:16;98802.19;;;0.68;75.49
55347;BME280;41218;55.700;38.270;2023-02-14T06:36:18;98815.13;;;0.71;75.59
55347;BME280;41218;55.700;38.270;2023-02-14T06:41:18;98814.81;;;0.72;75.32
55347;BME280;41218;55.700;38.270;2023-02-14T06:46:19;98813.41;;;0.66;75.21
55347;BME280;41218;55.700;38.270;2023-02-14T06:51:19;98814.53;;;0.65;75.44
55347;BME280;41218;55.700;38.270;2023-02-14T06:56:20;98829.09;;;0.69;75.33
55347;BME280;41218;55.700;38.270;2023-02-14T07:01:20;98839.97;;;0.69;75.36
55347;BME280;41218;55.700;38.270;2023-02-14T07:06:21;98843.47;;;0.70;75.08
55347;BME280;41218;55.700;38.270;2023-02-14T07:11:21;98848.25;;;0.73;75.05
55347;BME280;41218;55.700;38.270;2023-02-14T07:16:23;98845.88;;;0.71;75.29
55347;BME280;41218;55.700;38.270;2023-02-14T07:21:23;98855.56;;;0.81;75.11
55347;BME280;41218;55.700;38.270;2023-02-14T07:26:24;98856.66;;;0.89;75.26
55347;BME280;41218;55.700;38.270;2023-02-14T07:31:24;98868.84;;;0.91;75.06
55347;BME280;41218;55.700;38.270;2023-02-14T07:36:25;98874.22;;;1.00;74.80
55347;BME280;41218;55.700;38.270;2023-02-14T07:41:25;98883.34;;;1.04;74.69
55347;BME280;41218;55.700;38.270;2023-02-14T07:46:26;98887.84;;;1.00;74.63
55347;BME280;41218;55.700;38.270;2023-02-14T07:51:26;98884.50;;;0.94;74.68
55347;BME280;41218;55.700;38.270;2023-02-14T07:56:27;98888.53;;;0.88;74.70
55347;BME280;41218;55.700;38.270;2023-02-14T08:01:28;98911.06;;;0.97;75.14
55347;BME280;41218;55.700;38.270;2023-02-14T08:06:28;98917.09;;;1.03;75.01
55347;BME280;41218;55.700;38.270;2023-02-14T08:11:29;98907.63;;;1.09;74.76
55347;BME280;41218;55.700;38.270;2023-02-14T08:16:48;98912.06;;;1.23;74.73
55347;BME280;41218;55.700;38.270;2023-02-14T08:21:48;98914.94;;;1.17;74.85
55347;BME280;41218;55.700;38.270;2023-02-14T08:26:49;98925.06;;;1.17;74.81
55347;BME280;41218;55.700;38.270;2023-02-14T08:31:50;98927.31;;;1.15;74.56
55347;BME280;41218;55.700;38.270;2023-02-14T08:36:53;98934.63;;;1.23;74.62
55347;BME280;41218;55.700;38.270;2023-02-14T08:41:53;98941.34;;;1.26;74.51
55347;BME280;41218;55.700;38.270;2023-02-14T08:46:54;98953.16;;;1.30;74.29
55347;BME280;41218;55.700;38.270;2023-02-14T08:51:54;98952.47;;;1.42;74.54
55347;BME280;41218;55.700;38.270;2023-02-14T08:56:55;98948.31;;;1.44;74.38
55347;BME280;41218;55.700;38.270;2023-02-14T09:01:56;98965.91;;;1.47;74.23
55347;BME280;41218;55.700;38.270;2023-02-14T09:06:56;98963.00;;;1.52;74.02
55347;BME280;41218;55.700;38.270;2023-02-14T09:11:57;98961.22;;;1.56;73.96
55347;BME280;41218;55.700;38.270;2023-02-14T09:16:57;98971.47;;;1.59;73.51
55347;BME280;41218;55.700;38.270;2023-02-14T09:22:00;98992.94;;;1.60;73.03
55347;BME280;41218;55.700;38.270;2023-02-14T09:27:03;98990.56;;;1.50;72.91
55347;BME280;41218;55.700;38.270;2023-02-14T09:32:04;99005.66;;;1.39;73.17
55347;BME280;41218;55.700;38.270;2023-02-14T09:37:04;98987.63;;;1.26;73.14
55347;BME280;41218;55.700;38.270;2023-02-14T09:52:45;99014.00;;;1.43;73.16
55347;BME280;41218;55.700;38.270;2023-02-14T09:58:21;99040.38;;;1.51;73.25
55347;BME280;41218;55.700;38.270;2023-02-14T10:03:30;99020.47;;;1.59;72.40
55347;BME280;41218;55.700;38.270;2023-02-14T10:14:34;99038.81;;;1.79;71.52
55347;BME280;41218;55.700;38.270;2023-02-14T10:19:43;99033.22;;;1.76;71.19
55347;BME280;41218;55.700;38.270;2023-02-14T10:24:58;99054.06;;;1.72;70.78
55347;BME280;41218;55.700;38.270;2023-02-14T10:30:11;99066.44;;;1.69;70.35
55347;BME280;41218;55.700;38.270;2023-02-14T10:35:18;99073.97;;;1.64;70.53
55347;BME280;41218;55.700;38.270;2023-02-14T10:40:49;99070.00;;;1.61;70.67
55347;BME280;41218;55.700;38.270;2023-02-14T10:51:23;99107.72;;;1.89;69.89
55347;BME280;41218;55.700;38.270;2023-02-14T10:56:33;99104.69;;;1.82;70.00
55347;BME280;41218;55.700;38.270;2023-02-14T11:01:35;99136.78;;;1.67;70.24
55347;BME280;41218;55.700;38.270;2023-02-14T11:06:35;99138.94;;;1.44;70.11
55347;BME280;41218;55.700;38.270;2023-02-14T11:11:59;99134.81;;;1.20;71.20
55347;BME280;41218;55.700;38.270;2023-02-14T11:17:00;99141.53;;;1.14;71.27
55347;BME280;41218;55.700;38.270;2023-02-14T11:22:28;99150.47;;;1.24;71.91
55347;BME280;41218;55.700;38.270;2023-02-14T11:27:29;99148.22;;;1.43;71.99
55347;BME280;41218;55.700;38.270;2023-02-14T11:32:31;99148.66;;;1.54;71.51
55347;BME280;41218;55.700;38.270;2023-02-14T11:37:48;99161.50;;;1.53;71.44
55347;BME280;41218;55.700;38.270;2023-02-14T11:42:49;99173.81;;;1.59;72.08
55347;BME280;41218;55.700;38.270;2023-02-14T11:48:24;99180.41;;;1.58;71.09
55347;BME280;41218;55.700;38.270;2023-02-14T11:53:27;99184.91;;;1.54;70.79
55347;BME280;41218;55.700;38.270;2023-02-14T12:03:46;99191.66;;;1.22;70.83
55347;BME280;41218;55.700;38.270;2023-02-14T12:08:48;99213.94;;;1.24;70.82
55347;BME280;41218;55.700;38.270;2023-02-14T12:13:56;99214.06;;;1.10;71.12
55347;BME280;41218;55.700;38.270;2023-02-14T12:19:12;99219.03;;;1.08;71.43
55347;BME280;41218;55.700;38.270;2023-02-14T12:29:41;99238.88;;;1.00;71.27
55347;BME280;41218;55.700;38.270;2023-02-14T12:34:43;99238.69;;;0.79;71.57
55347;BME280;41218;55.700;38.270;2023-02-14T12:40:08;99262.06;;;0.89;71.47
55347;BME280;41218;55.700;38.270;2023-02-14T12:56:08;99291.59;;;0.55;71.36
55347;BME280;41218;55.700;38.270;2023-02-14T13:11:51;99296.34;;;0.41;72.30
55347;BME280;41218;55.700;38.270;2023-02-14T13:17:17;99309.00;;;0.54;72.37
55347;BME280;41218;55.700;38.270;2023-02-14T13:22:24;99325.19;;;0.59;72.19
55347;BME280;41218;55.700;38.270;2023-02-14T13:27:31;99327.75;;;0.65;71.91
55347;BME280;41218;55.700;38.270;2023-02-14T13:32:38;99338.63;;;0.56;72.20
55347;BME280;41218;55.700;38.270;2023-02-14T13:37:44;99351.59;;;0.59;72.44
55347;BME280;41218;55.700;38.270;2023-02-14T13:47:46;99364.06;;;0.60;72.38
55347;BME280;41218;55.700;38.270;2023-02-14T13:52:47;99368.03;;;0.54;72.33
55347;BME280;41218;55.700;38.270;2023-02-14T13:58:14;99386.63;;;0.60;72.07
55347;BME280;41218;55.700;38.270;2023-02-14T14:18:41;99403.44;;;0.31;72.33
55347;BME280;41218;55.700;38.270;2023-02-14T14:23:42;99417.22;;;0.35;72.54
55347;BME280;41218;55.700;38.270;2023-02-14T14:28:44;99432.19;;;0.32;72.61
55347;BME280;41218;55.700;38.270;2023-02-14T14:33:45;99433.63;;;0.30;72.58
55347;BME280;41218;55.700;38.270;2023-02-14T14:38:50;99449.63;;;0.31;72.83
55347;BME280;41218;55.700;38.270;2023-02-14T14:43:52;99438.22;;;0.21;73.24
55347;BME280;41218;55.700;38.270;2023-02-14T14:48:54;99452.16;;;0.28;73.06
55347;BME280;41218;55.700;38.270;2023-02-14T14:54:06;99466.44;;;0.33;72.97
55347;BME280;41218;55.700;38.270;2023-02-14T15:04:28;99489.72;;;0.26;73.49
55347;BME280;41218;55.700;38.270;2023-02-14T15:09:30;99487.75;;;0.17;73.64
55347;BME280;41218;55.700;38.270;2023-02-14T15:14:34;99506.03;;;0.26;73.69
55347;BME280;41218;55.700;38.270;2023-02-14T15:19:40;99508.38;;;0.18;73.68
55347;BME280;41218;55.700;38.270;2023-02-14T15:24:42;99515.50;;;0.28;73.34
55347;BME280;41218;55.700;38.270;2023-02-14T15:30:05;99529.28;;;0.32;73.32
55347;BME280;41218;55.700;38.270;2023-02-14T15:35:10;99497.56;;;0.05;73.33
55347;BME280;41218;55.700;38.270;2023-02-14T15:40:23;99531.84;;;0.14;73.37
55347;BME280;41218;55.700;38.270;2023-02-14T15:50:29;99561.94;;;0.18;73.70
55347;BME280;41218;55.700;38.270;2023-02-14T15:55:31;99558.34;;;0.09;73.37
55347;BME280;41218;55.700;38.270;2023-02-14T16:00:32;99564.78;;;0.13;73.03
55347;BME280;41218;55.700;38.270;2023-02-14T16:05:34;99571.13;;;0.08;73.10
55347;BME280;41218;55.700;38.270;2023-02-14T16:10:36;99588.22;;;0.09;73.00
55347;BME280;41218;55.700;38.270;2023-02-14T16:15:39;99589.75;;;0.01;73.07
55347;BME280;41218;55.700;38.270;2023-02-14T16:20:43;99597.31;;;0.04;72.83
55347;BME280;41218;55.700;38.270;2023-02-14T16:25:50;99594.97;;;-0.03;72.80
55347;BME280;41218;55.700;38.270;2023-02-14T16:30:54;99609.34;;;-0.02;73.08
55347;BME280;41218;55.700;38.270;2023-02-14T16:36:02;99594.59;;;-0.10;73.06
55347;BME280;41218;55.700;38.270;2023-02-14T16:41:05;99619.94;;;-0.01;72.86
55347;BME280;41218;55.700;38.270;2023-02-14T16:46:12;99616.00;;;-0.08;72.90
55347;BME280;41218;55.700;38.270;2023-02-14T16:51:14;99616.13;;;0.01;72.52
55347;BME280;41218;55.700;38.270;2023-02-14T16:56:41;99632.22;;;-0.03;72.71
55347;BME280;41218;55.700;38.270;2023-02-14T17:01:43;99622.84;;;-0.11;72.67
55347;BME280;41218;55.700;38.270;2023-02-14T17:06:51;99634.13;;;-0.04;72.42
55347;BME280;41218;55.700;38.270;2023-02-14T17:11:55;99644.50;;;-0.06;72.33
55347;BME280;41218;55.700;38.270;2023-02-14T17:16:58;99651.81;;;-0.06;71.98
55347;BME280;41218;55.700;38.270;2023-02-14T17:21:58;99666.25;;;-0.06;72.37
55347;BME280;41218;55.700;38.270;2023-02-14T17:26:59;99671.34;;;-0.04;71.95
55347;BME280;41218;55.700;38.270;2023-02-14T17:32:00;99670.16;;;-0.12;71.90
55347;BME280;41218;55.700;38.270;2023-02-14T17:37:00;99681.59;;;-0.15;71.98
55347;BME280;41218;55.700;38.270;2023-02-14T17:42:02;99690.56;;;-0.14;72.34
55347;BME280;41218;55.700;38.270;2023-02-14T17:47:03;99695.81;;;-0.18;71.95
55347;BME280;41218;55.700;38.270;2023-02-14T17:52:04;99703.34;;;-0.15;72.38
55347;BME280;41218;55.700;38.270;2023-02-14T17:57:05;99688.47;;;-0.17;72.44
55347;BME280;41218;55.700;38.270;2023-02-14T18:02:05;99703.44;;;-0.20;72.50
55347;BME280;41218;55.700;38.270;2023-02-14T18:07:06;99704.47;;;-0.16;71.96
55347;BME280;41218;55.700;38.270;2023-02-14T18:12:07;99712.91;;;-0.17;72.01
55347;BME280;41218;55.700;38.270;2023-02-14T18:17:11;99712.91;;;-0.17;72.06
55347;BME280;41218;55.700;38.270;2023-02-14T18:22:12;99696.69;;;-0.23;71.33
55347;BME280;41218;55.700;38.270;2023-02-14T18:27:13;99733.44;;;-0.11;71.72
55347;BME280;41218;55.700;38.270;2023-02-14T18:32:15;99729.72;;;-0.15;71.56
55347;BME280;41218;55.700;38.270;2023-02-14T18:37:15;99726.59;;;-0.09;71.58
55347;BME280;41218;55.700;38.270;2023-02-14T18:42:16;99738.78;;;-0.20;71.96
55347;BME280;41218;55.700;38.270;2023-02-14T18:47:17;99729.91;;;-0.26;71.89
55347;BME280;41218;55.700;38.270;2023-02-14T18:52:17;99742.78;;;-0.17;71.85
55347;BME280;41218;55.700;38.270;2023-02-14T18:57:18;99752.53;;;-0.16;71.92
55347;BME280;41218;55.700;38.270;2023-02-14T19:02:19;99741.56;;;-0.25;72.08
55347;BME280;41218;55.700;38.270;2023-02-14T19:07:21;99759.66;;;-0.21;72.04
55347;BME280;41218;55.700;38.270;2023-02-14T19:12:21;99763.00;;;-0.24;72.06
55347;BME280;41218;55.700;38.270;2023-02-14T19:17:23;99783.03;;;-0.19;71.88
55347;BME280;41218;55.700;38.270;2023-02-14T19:22:24;99796.16;;;-0.41;72.57
55347;BME280;41218;55.700;38.270;2023-02-14T19:27:24;99776.31;;;-0.41;72.05
55347;BME280;41218;55.700;38.270;2023-02-14T19:32:26;99807.44;;;-0.52;72.63
55347;BME280;41218;55.700;38.270;2023-02-14T19:37:26;99800.78;;;-0.60;72.33
55347;BME280;41218;55.700;38.270;2023-02-14T19:42:27;99809.72;;;-0.59;72.08
55347;BME280;41218;55.700;38.270;2023-02-14T19:47:27;99819.03;;;-0.66;71.94
55347;BME280;41218;55.700;38.270;2023-02-14T19:52:28;99819.41;;;-0.72;71.94
55347;BME280;41218;55.700;38.270;2023-02-14T19:57:28;99806.78;;;-0.82;71.74
55347;BME280;41218;55.700;38.270;2023-02-14T20:02:29;99829.97;;;-0.71;71.10
55347;BME280;41218;55.700;38.270;2023-02-14T20:07:29;99821.53;;;-0.88;71.55
55347;BME280;41218;55.700;38.270;2023-02-14T20:12:30;99843.19;;;-0.83;71.06
55347;BME280;41218;55.700;38.270;2023-02-14T20:17:31;99854.09;;;-0.88;71.05
55347;BME280;41218;55.700;38.270;2023-02-14T20:22:32;99850.81;;;-0.85;70.37
55347;BME280;41218;55.700;38.270;2023-02-14T20:27:32;99857.09;;;-0.90;70.41
55347;BME280;41218;55.700;38.270;2023-02-14T20:32:33;99858.13;;;-1.10;70.41
55347;BME280;41218;55.700;38.270;2023-02-14T20:37:35;99869.81;;;-1.09;70.77
55347;BME280;41218;55.700;38.270;2023-02-14T20:42:35;99862.63;;;-1.24;70.66
55347;BME280;41218;55.700;38.270;2023-02-14T20:47:38;99882.53;;;-1.10;70.18
55347;BME280;41218;55.700;38.270;2023-02-14T20:52:39;99889.19;;;-1.21;70.86
55347;BME280;41218;55.700;38.270;2023-02-14T20:57:39;99895.94;;;-1.18;70.66
55347;BME280;41218;55.700;38.270;2023-02-14T21:02:40;99890.25;;;-1.17;70.05
55347;BME280;41218;55.700;38.270;2023-02-14T21:07:40;99898.13;;;-1.21;70.04
55347;BME280;41218;55.700;38.270;2023-02-14T21:12:41;99900.69;;;-1.29;70.45
55347;BME280;41218;55.700;38.270;2023-02-14T21:17:41;99914.53;;;-1.31;70.36
55347;BME280;41218;55.700;38.270;2023-02-14T21:22:42;99924.28;;;-1.30;70.06
55347;BME280;41218;55.700;38.270;2023-02-14T21:27:42;99908.63;;;-1.38;69.77
55347;BME280;41218;55.700;38.270;2023-02-14T21:32:43;99927.53;;;-1.28;69.45
55347;BME280;41218;55.700;38.270;2023-02-14T21:37:43;99944.06;;;-1.29;69.06
55347;BME280;41218;55.700;38.270;2023-02-14T21:42:44;99940.31;;;-1.33;68.99
55347;BME280;41218;55.700;38.270;2023-02-14T21:47:44;99936.84;;;-1.39;68.78
55347;BME280;41218;55.700;38.270;2023-02-14T21:53:05;99949.09;;;-1.47;68.91
55347;BME280;41218;55.700;38.270;2023-02-14T21:58:07;99960.19;;;-1.43;68.68
55347;BME280;41218;55.700;38.270;2023-02-14T22:03:07;99941.25;;;-1.48;68.95
55347;BME280;41218;55.700;38.270;2023-02-14T22:08:08;99955.72;;;-1.58;69.25
55347;BME280;41218;55.700;38.270;2023-02-14T22:13:08;99951.13;;;-1.63;69.27
55347;BME280;41218;55.700;38.270;2023-02-14T22:18:09;99973.31;;;-1.55;68.95
55347;BME280;41218;55.700;38.270;2023-02-14T22:23:09;99972.28;;;-1.65;69.67
55347;BME280;41218;55.700;38.270;2023-02-14T22:28:10;99969.09;;;-1.72;69.47
55347;BME280;41218;55.700;38.270;2023-02-14T22:33:11;99979.88;;;-1.67;69.48
55347;BME280;41218;55.700;38.270;2023-02-14T22:38:11;99988.53;;;-1.65;69.68
55347;BME280;41218;55.700;38.270;2023-02-14T22:43:12;99986.41;;;-1.68;69.72
55347;BME280;41218;55.700;38.270;2023-02-14T22:48:14;99996.47;;;-1.68;69.56
55347;BME280;41218;55.700;38.270;2023-02-14T22:53:17;100001.91;;;-1.73;70.21
55347;BME280;41218;55.700;38.270;2023-02-14T22:58:17;100000.03;;;-1.78;69.86
55347;BME280;41218;55.700;38.270;2023-02-14T23:03:18;100006.78;;;-1.70;69.70
55347;BME280;41218;55.700;38.270;2023-02-14T23:08:18;100005.22;;;-1.82;70.16
55347;BME280;41218;55.700;38.270;2023-02-14T23:13:19;100024.63;;;-1.69;69.54
55347;BME280;41218;55.700;38.270;2023-02-14T23:18:38;100027.41;;;-1.79;69.65
55347;BME280;41218;55.700;38.270;2023-02-14T23:23:57;100024.09;;;-1.71;69.76
55347;BME280;41218;55.700;38.270;2023-02-14T23:28:57;100022.53;;;-1.77;69.50
55347;BME280;41218;55.700;38.270;2023-02-14T23:33:58;100009.31;;;-1.89;69.48
55347;BME280;41218;55.700;38.270;2023-02-14T23:38:58;100033.09;;;-1.81;69.70
55347;BME280;41218;55.700;38.270;2023-02-14T23:43:59;100032.63;;;-1.88;69.53
55347;BME280;41218;55.700;38.270;2023-02-14T23:48:59;100041.25;;;-1.81;69.53
55347;BME280;41218;55.700;38.270;2023-02-14T23:54:00;100042.03;;;-1.75;69.52
55347;BME280;41218;55.700;38.270;2023-02-14T23:59:00;100036.34;;;-1.79;69.37
